Terminal Aerodrome Forecast
Issued by NWS

Home | Current Version | Previous Version | Graphics & Text | Print | Product List | Glossary On
Versions: 1 2 3 4 5 6 7 8 9 10 11 12 13 14 15 16 17 18 19 20 21 22 23 24 25
132
FTUS43 KLOT 251456 AAA
TAFDPA
TAF AMD
KDPA 251456Z 2515/2612 29015G23KT P6SM BKN024 OVC035
      TEMPO 2515/2516 5SM -SHSN BKN022
     FM252300 29012G18KT P6SM BKN035
     FM260200 28008KT P6SM SCT150
     FM260900 21007KT P6SM BKN090=

USA.gov is the U.S. government's official web portal to all federal, state and local government web resources and services.